Time;durP1;ratioP1;P1;durP2;ratioP2;P2;SDS_P1;SDS_P2;PMS_P1;PMS_P2;Temp;Humidity;BMP_temperature;BMP_pressure;BME280_temperature;BME280_humidity;BME280_pressure;Samples;Min_cycle;Max_cycle;Signal;HPM_P1;HPM_P2
2023/10/28 00:01:31;;;;;;;11.45;4.47;;;10.60;99.90;;;;;;5022740;28;20061;-86
2023/10/28 00:03:57;;;;;;;13.90;5.43;;;10.60;99.90;;;;;;5022623;28;20033;-87
2023/10/28 00:06:23;;;;;;;14.55;5.10;;;10.60;99.90;;;;;;5022125;28;20042;-86
2023/10/28 00:08:49;;;;;;;11.25;4.78;;;10.60;99.90;;;;;;5023175;28;20024;-87
2023/10/28 00:11:19;;;;;;;14.10;4.95;;;10.70;99.90;;;;;;5021796;28;20064;-86
2023/10/28 00:13:45;;;;;;;10.82;3.65;;;10.60;99.90;;;;;;5022872;28;20030;-87
2023/10/28 00:16:11;;;;;;;15.40;4.47;;;10.60;99.90;;;;;;5021254;28;20030;-87
2023/10/28 00:18:37;;;;;;;12.18;4.93;;;10.60;99.90;;;;;;5023138;28;20086;-86
2023/10/28 00:21:07;;;;;;;11.47;4.47;;;10.60;99.90;;;;;;5022045;28;20025;-87
2023/10/28 00:23:33;;;;;;;12.10;4.35;;;10.70;99.90;;;;;;5022234;28;20026;-87
2023/10/28 00:26:04;;;;;;;11.38;3.33;;;10.70;99.90;;;;;;5022808;28;20493;-86
2023/10/28 00:28:33;;;;;;;14.23;4.80;;;10.70;99.90;;;;;;5021371;28;20022;-86
2023/10/28 00:31:00;;;;;;;12.32;4.28;;;10.70;99.90;;;;;;5022937;28;20033;-87
2023/10/28 00:33:26;;;;;;;14.95;4.47;;;10.70;99.90;;;;;;5021480;28;20036;-87
2023/10/28 00:35:52;;;;;;;11.73;4.47;;;10.70;99.90;;;;;;5022317;28;20022;-86
2023/10/28 00:38:18;;;;;;;15.38;5.07;;;10.70;99.90;;;;;;5021947;28;20022;-86
2023/10/28 00:40:44;;;;;;;11.25;3.83;;;10.70;99.90;;;;;;5022117;28;20089;-86
2023/10/28 00:43:10;;;;;;;12.35;4.45;;;10.70;99.90;;;;;;5022208;28;20061;-86
2023/10/28 00:45:37;;;;;;;12.43;4.57;;;10.70;99.90;;;;;;5020869;28;20101;-87
2023/10/28 00:48:04;;;;;;;18.33;4.35;;;10.70;99.90;;;;;;5024068;28;20048;-86
2023/10/28 00:50:30;;;;;;;11.07;4.35;;;10.70;99.90;;;;;;5021197;28;20030;-86
2023/10/28 00:52:57;;;;;;;12.85;4.05;;;10.80;99.90;;;;;;5021536;28;20030;-86
2023/10/28 00:55:23;;;;;;;14.83;4.10;;;10.80;99.90;;;;;;5021520;28;20121;-86
2023/10/28 00:57:49;;;;;;;14.57;4.20;;;10.80;99.90;;;;;;5021246;28;20084;-86
2023/10/28 01:00:16;;;;;;;11.00;4.22;;;10.80;99.90;;;;;;5022280;28;20014;-87
2023/10/28 01:02:43;;;;;;;12.15;3.78;;;10.80;99.90;;;;;;5004591;28;20398;-87
2023/10/28 01:05:13;;;;;;;12.48;3.70;;;10.90;99.90;;;;;;5024134;28;20034;-86
2023/10/28 01:07:42;;;;;;;12.50;3.92;;;10.90;99.90;;;;;;5040075;28;20049;-87
2023/10/28 01:10:08;;;;;;;11.07;4.03;;;10.90;99.90;;;;;;5041221;28;20089;-87
2023/10/28 01:12:35;;;;;;;12.45;4.30;;;10.90;99.90;;;;;;5040711;28;20025;-87
2023/10/28 01:15:02;;;;;;;9.52;3.42;;;10.90;99.90;;;;;;5040812;28;20026;-87
2023/10/28 01:17:29;;;;;;;8.60;3.83;;;10.90;99.90;;;;;;5041660;28;20025;-87
2023/10/28 01:19:56;;;;;;;12.68;3.88;;;10.90;99.90;;;;;;5040413;28;20026;-87
2023/10/28 01:22:26;;;;;;;13.13;3.63;;;11.00;99.90;;;;;;5042413;28;20037;-87
2023/10/28 01:24:52;;;;;;;10.38;3.17;;;11.00;99.90;;;;;;5044502;28;20026;-87
2023/10/28 01:27:19;;;;;;;11.25;3.83;;;11.00;99.90;;;;;;5044690;28;20072;-87
2023/10/28 01:29:46;;;;;;;10.77;3.53;;;11.00;99.90;;;;;;5041432;28;20029;-87
2023/10/28 01:32:12;;;;;;;12.77;3.35;;;11.00;99.90;;;;;;5041015;28;20021;-87
2023/10/28 01:34:50;;;;;;;13.98;3.92;;;11.10;99.90;;;;;;5041539;28;20041;-87
2023/10/28 01:37:20;;;;;;;14.45;3.72;;;11.00;99.90;;;;;;5040005;28;20107;-87
2023/10/28 01:39:48;;;;;;;11.10;4.38;;;11.00;99.90;;;;;;5041444;28;20021;-87
2023/10/28 01:42:19;;;;;;;13.80;4.20;;;11.00;99.90;;;;;;5039665;28;20046;-87
2023/10/28 01:44:45;;;;;;;10.30;4.38;;;11.00;99.90;;;;;;5041017;28;20022;-86
2023/10/28 01:47:13;;;;;;;12.65;3.35;;;11.00;99.90;;;;;;5040986;28;20041;-86
2023/10/28 01:49:39;;;;;;;16.00;4.38;;;11.00;99.90;;;;;;5040143;28;20025;-86
2023/10/28 01:52:08;;;;;;;9.02;3.55;;;11.10;99.90;;;;;;5041641;28;20029;-87
2023/10/28 01:54:35;;;;;;;8.52;3.58;;;11.10;99.90;;;;;;5039505;28;20049;-87
2023/10/28 01:57:05;;;;;;;11.25;3.92;;;11.00;99.90;;;;;;5040762;28;20026;-87
2023/10/28 01:59:32;;;;;;;8.77;3.00;;;11.00;99.90;;;;;;5040236;28;20386;-87
2023/10/28 02:02:01;;;;;;;11.00;3.30;;;11.00;99.90;;;;;;5040672;28;20048;-87
2023/10/28 02:04:27;;;;;;;12.00;3.53;;;11.00;99.90;;;;;;5040807;28;20105;-86
2023/10/28 02:06:53;;;;;;;10.75;3.30;;;11.00;99.90;;;;;;5039713;28;20383;-87
2023/10/28 02:09:18;;;;;;;13.25;3.28;;;11.00;99.90;;;;;;5041447;28;20025;-87
2023/10/28 02:11:44;;;;;;;9.13;2.97;;;11.10;99.90;;;;;;5039064;28;20132;-87
2023/10/28 02:14:11;;;;;;;11.77;3.10;;;11.10;99.90;;;;;;5040659;28;20032;-87
2023/10/28 02:16:38;;;;;;;10.00;2.92;;;11.10;99.90;;;;;;5039887;28;20426;-87
2023/10/28 02:19:05;;;;;;;11.52;3.08;;;11.00;99.90;;;;;;5040402;28;20458;-87
2023/10/28 02:21:31;;;;;;;12.25;2.63;;;11.10;99.90;;;;;;5040574;28;20014;-86
2023/10/28 02:23:57;;;;;;;7.43;3.25;;;11.10;99.90;;;;;;5039662;28;20082;-87
2023/10/28 02:26:23;;;;;;;13.55;3.15;;;11.10;99.90;;;;;;5040630;28;20030;-88
2023/10/28 02:28:48;;;;;;;11.65;2.90;;;11.10;99.90;;;;;;5039571;28;20639;-88
2023/10/28 02:31:14;;;;;;;14.88;3.53;;;11.10;99.90;;;;;;5041543;28;20022;-88
2023/10/28 02:33:40;;;;;;;13.63;2.80;;;11.10;99.90;;;;;;5039848;28;20022;-87
2023/10/28 02:36:08;;;;;;;11.80;2.67;;;11.10;99.90;;;;;;5040479;28;20048;-88
2023/10/28 02:38:37;;;;;;;8.70;2.28;;;11.10;99.90;;;;;;5040544;28;20030;-87
2023/10/28 02:41:06;;;;;;;8.98;2.17;;;11.00;99.90;;;;;;5040645;28;20045;-87
2023/10/28 02:43:35;;;;;;;7.43;2.20;;;11.10;99.90;;;;;;5040998;28;20049;-87
2023/10/28 02:46:03;;;;;;;11.35;2.50;;;11.10;99.90;;;;;;5039627;28;20033;-86
2023/10/28 02:48:29;;;;;;;9.48;2.60;;;11.10;99.90;;;;;;5041083;28;20026;-86
2023/10/28 02:50:55;;;;;;;11.07;2.40;;;11.00;99.90;;;;;;5040167;28;20102;-87
2023/10/28 02:53:20;;;;;;;7.78;2.00;;;11.10;99.90;;;;;;5042809;28;20034;-87
2023/10/28 02:55:46;;;;;;;11.73;3.15;;;11.00;99.90;;;;;;5043529;28;20021;-86
2023/10/28 02:58:12;;;;;;;6.85;2.35;;;11.00;99.90;;;;;;5041787;28;20014;-87
2023/10/28 03:00:38;;;;;;;10.13;2.45;;;11.00;99.90;;;;;;5042937;28;20113;-87
2023/10/28 03:03:04;;;;;;;7.88;1.80;;;11.00;99.90;;;;;;5040461;28;20033;-87
2023/10/28 03:05:30;;;;;;;7.50;1.70;;;11.00;99.90;;;;;;5041309;28;20021;-85
2023/10/28 03:07:56;;;;;;;11.48;2.30;;;11.00;99.90;;;;;;5039359;28;20052;-86
2023/10/28 03:10:21;;;;;;;8.43;2.30;;;11.00;99.90;;;;;;5039924;28;20014;-86
2023/10/28 03:12:48;;;;;;;10.18;3.03;;;11.10;99.90;;;;;;5040027;28;20067;-85
2023/10/28 03:15:14;;;;;;;9.88;2.88;;;11.10;99.90;;;;;;5039259;28;20076;-86
2023/10/28 03:17:40;;;;;;;6.18;1.80;;;11.10;99.90;;;;;;5044922;28;20024;-86
2023/10/28 03:20:11;;;;;;;7.97;1.52;;;11.10;99.90;;;;;;5045089;28;20595;-87
2023/10/28 03:22:38;;;;;;;5.05;1.65;;;11.10;99.90;;;;;;5047285;28;20033;-87
2023/10/28 03:25:04;;;;;;;7.75;1.85;;;11.10;99.90;;;;;;5044741;28;20021;-86
2023/10/28 03:27:31;;;;;;;10.95;1.42;;;11.20;99.90;;;;;;5044705;28;20456;-87
2023/10/28 03:29:58;;;;;;;5.22;1.85;;;11.10;99.90;;;;;;5043820;28;20098;-87
2023/10/28 03:32:24;;;;;;;7.78;1.80;;;11.10;99.90;;;;;;5042971;28;20144;-86
2023/10/28 03:34:49;;;;;;;7.32;1.48;;;11.20;99.90;;;;;;5044145;28;20045;-87
2023/10/28 03:37:15;;;;;;;4.72;1.10;;;11.10;99.90;;;;;;5042107;28;20030;-87
2023/10/28 03:39:41;;;;;;;5.35;1.17;;;11.20;99.90;;;;;;5044138;28;20037;-86
2023/10/28 03:42:07;;;;;;;3.75;1.10;;;11.20;99.90;;;;;;5042015;28;20049;-87
2023/10/28 03:44:34;;;;;;;6.45;1.30;;;11.10;99.90;;;;;;5044033;28;20032;-87
2023/10/28 03:47:00;;;;;;;7.95;1.88;;;11.20;99.90;;;;;;5042863;28;20108;-85
2023/10/28 03:49:27;;;;;;;4.60;1.17;;;11.10;99.90;;;;;;5042518;28;20025;-85
2023/10/28 03:51:53;;;;;;;5.35;1.30;;;11.10;99.90;;;;;;5042571;28;20025;-85
2023/10/28 03:54:18;;;;;;;4.93;1.30;;;11.10;99.90;;;;;;5042045;28;20433;-85
2023/10/28 03:56:44;;;;;;;4.00;1.58;;;11.10;99.90;;;;;;5043679;28;20086;-85
2023/10/28 03:59:10;;;;;;;3.58;1.25;;;11.10;99.90;;;;;;5041662;28;20033;-85
2023/10/28 04:01:36;;;;;;;4.55;1.13;;;11.10;99.90;;;;;;5043087;28;20032;-86
2023/10/28 04:04:01;;;;;;;4.10;0.98;;;11.20;99.90;;;;;;5042405;28;20025;-86
2023/10/28 04:06:27;;;;;;;5.07;0.90;;;11.10;99.90;;;;;;5041911;28;20049;-86
2023/10/28 04:08:53;;;;;;;6.93;1.02;;;11.10;99.90;;;;;;5043099;28;20018;-86
2023/10/28 04:11:19;;;;;;;5.40;1.02;;;11.20;99.90;;;;;;5041986;28;20024;-86
2023/10/28 04:13:44;;;;;;;4.72;1.27;;;11.10;99.90;;;;;;5042938;28;20025;-86
2023/10/28 04:16:10;;;;;;;5.40;0.98;;;11.20;99.90;;;;;;5041195;28;20034;-86
2023/10/28 04:18:36;;;;;;;3.92;1.00;;;11.20;99.90;;;;;;5043273;28;20385;-86
2023/10/28 04:21:02;;;;;;;2.60;0.82;;;11.20;99.90;;;;;;5041440;28;20022;-86
2023/10/28 04:23:28;;;;;;;5.20;1.42;;;11.20;99.90;;;;;;5042346;28;20033;-85
2023/10/28 04:25:54;;;;;;;4.25;1.10;;;11.20;99.90;;;;;;5042147;28;20037;-85
2023/10/28 04:28:20;;;;;;;3.90;0.90;;;11.20;99.90;;;;;;5041243;28;20017;-85
2023/10/28 04:30:58;;;;;;;4.60;1.17;;;11.20;99.90;;;;;;5042902;28;20032;-85
2023/10/28 04:33:24;;;;;;;2.83;0.98;;;11.20;99.90;;;;;;5041477;28;20065;-86
2023/10/28 04:35:52;;;;;;;5.38;1.27;;;11.20;99.90;;;;;;5042141;28;20026;-85
2023/10/28 04:38:18;;;;;;;3.90;1.38;;;11.20;99.90;;;;;;5041557;28;20025;-86
2023/10/28 04:40:44;;;;;;;5.13;1.55;;;11.20;99.90;;;;;;5042118;28;20021;-85
2023/10/28 04:43:10;;;;;;;4.43;1.20;;;11.20;99.90;;;;;;5042316;28;20076;-86
2023/10/28 04:45:36;;;;;;;5.10;1.25;;;11.20;99.90;;;;;;5040967;28;20025;-86
2023/10/28 04:48:01;;;;;;;3.92;1.40;;;11.20;99.90;;;;;;5042483;28;20044;-85
2023/10/28 04:50:29;;;;;;;3.80;1.65;;;11.20;99.90;;;;;;5040045;28;20071;-86
2023/10/28 04:52:55;;;;;;;6.57;1.40;;;11.30;99.90;;;;;;5042817;28;20025;-85
2023/10/28 04:55:21;;;;;;;5.68;1.30;;;11.30;99.90;;;;;;5041244;28;20033;-85
2023/10/28 04:57:47;;;;;;;5.53;1.40;;;11.30;99.90;;;;;;5043676;28;20021;-87
2023/10/28 05:00:13;;;;;;;4.07;1.10;;;11.30;99.90;;;;;;5042108;28;20052;-85
2023/10/28 05:02:39;;;;;;;2.60;1.05;;;11.20;99.90;;;;;;5040208;28;20393;-85
2023/10/28 05:05:06;;;;;;;5.07;1.30;;;11.20;99.90;;;;;;5041921;28;20040;-86
2023/10/28 05:07:33;;;;;;;7.70;1.77;;;11.30;99.90;;;;;;5040405;28;20047;-86
2023/10/28 05:09:59;;;;;;;7.10;1.60;;;11.30;99.90;;;;;;5042490;28;20033;-86
2023/10/28 05:12:25;;;;;;;5.82;1.45;;;11.20;99.90;;;;;;5043166;28;20557;-86
2023/10/28 05:14:51;;;;;;;4.93;1.42;;;11.30;99.90;;;;;;5043874;28;20040;-85
2023/10/28 05:17:17;;;;;;;3.97;1.38;;;11.30;99.90;;;;;;5043586;28;20020;-86
2023/10/28 05:19:42;;;;;;;5.22;1.35;;;11.30;99.90;;;;;;5042285;28;20032;-84
2023/10/28 05:22:08;;;;;;;4.57;1.00;;;11.30;99.90;;;;;;5044567;28;20026;-85
2023/10/28 05:24:34;;;;;;;2.90;1.30;;;11.30;99.90;;;;;;5040587;28;20496;-85
2023/10/28 05:27:00;;;;;;;7.13;1.40;;;11.30;99.90;;;;;;5041912;28;20167;-85
2023/10/28 05:29:26;;;;;;;6.00;1.50;;;11.30;99.90;;;;;;5040233;28;20025;-84
2023/10/28 05:31:56;;;;;;;2.80;1.23;;;11.30;99.90;;;;;;5041616;28;20021;-85
2023/10/28 05:34:25;;;;;;;3.92;1.13;;;11.30;99.90;;;;;;5040909;28;20116;-85
2023/10/28 05:36:51;;;;;;;1.98;0.82;;;11.40;99.90;;;;;;5040472;28;20395;-86
2023/10/28 05:39:16;;;;;;;3.55;1.08;;;11.40;99.90;;;;;;5041583;28;20041;-85
2023/10/28 05:41:42;;;;;;;3.47;1.33;;;11.40;99.90;;;;;;5039876;28;20056;-85
2023/10/28 05:44:08;;;;;;;4.07;1.23;;;11.40;99.90;;;;;;5041721;28;20017;-86
2023/10/28 05:46:34;;;;;;;4.15;1.13;;;11.40;99.90;;;;;;5039794;28;20499;-85
2023/10/28 05:49:00;;;;;;;7.07;1.83;;;11.40;99.90;;;;;;5041125;28;20049;-85
2023/10/28 05:51:26;;;;;;;7.05;1.35;;;11.40;99.90;;;;;;5041061;28;20111;-84
2023/10/28 05:53:52;;;;;;;4.93;1.13;;;11.40;99.90;;;;;;5039956;28;20537;-84
2023/10/28 05:56:17;;;;;;;3.85;1.25;;;11.40;99.90;;;;;;5041383;28;20026;-86
2023/10/28 05:58:43;;;;;;;6.47;1.33;;;11.40;99.90;;;;;;5039764;28;20033;-86
2023/10/28 06:01:09;;;;;;;7.80;1.30;;;11.40;99.90;;;;;;5041372;28;20022;-86
2023/10/28 06:03:38;;;;;;;4.38;1.20;;;11.40;99.90;;;;;;5039147;28;20051;-86
2023/10/28 06:06:04;;;;;;;6.07;1.58;;;11.40;99.90;;;;;;5041138;28;20465;-86
2023/10/28 06:08:31;;;;;;;4.40;1.35;;;11.40;99.90;;;;;;5040730;28;20033;-87
2023/10/28 06:10:56;;;;;;;6.38;2.13;;;11.40;99.90;;;;;;5040511;28;20025;-85
2023/10/28 06:13:23;;;;;;;6.90;1.60;;;11.40;99.90;;;;;;5040544;28;20489;-84
2023/10/28 06:15:48;;;;;;;5.25;1.52;;;11.40;99.90;;;;;;5039508;28;20057;-83
2023/10/28 06:18:14;;;;;;;8.32;1.85;;;11.40;99.90;;;;;;5040386;28;20037;-84
2023/10/28 06:20:40;;;;;;;5.43;1.50;;;11.40;99.90;;;;;;5039237;28;20057;-84
2023/10/28 06:23:06;;;;;;;5.38;1.50;;;11.40;99.90;;;;;;5041122;28;20025;-84
2023/10/28 06:25:34;;;;;;;5.18;1.55;;;11.40;99.90;;;;;;5040122;28;20473;-84
2023/10/28 06:28:02;;;;;;;4.03;1.55;;;11.40;99.90;;;;;;5040265;28;20095;-84
2023/10/28 06:30:27;;;;;;;5.47;1.27;;;11.40;99.90;;;;;;5040669;28;20029;-84
2023/10/28 06:32:53;;;;;;;6.43;1.70;;;11.40;99.90;;;;;;5038768;28;20017;-84
2023/10/28 06:35:19;;;;;;;6.18;2.15;;;11.40;99.90;;;;;;5042134;28;20469;-84
2023/10/28 06:37:46;;;;;;;9.00;2.00;;;11.40;99.90;;;;;;5022938;28;20407;-84
2023/10/28 06:40:12;;;;;;;6.30;1.45;;;11.40;99.90;;;;;;5040819;28;20033;-84
2023/10/28 06:42:39;;;;;;;5.18;1.65;;;11.40;99.90;;;;;;5039099;28;20053;-84
2023/10/28 06:45:05;;;;;;;6.63;1.63;;;11.40;99.90;;;;;;5039976;28;20063;-85
2023/10/28 06:47:33;;;;;;;6.93;1.98;;;11.50;99.90;;;;;;5040523;28;20120;-84
2023/10/28 06:50:00;;;;;;;4.78;1.67;;;11.40;99.90;;;;;;5040587;28;20502;-84
2023/10/28 06:52:28;;;;;;;3.65;1.33;;;11.50;99.90;;;;;;5044917;28;20026;-84
2023/10/28 06:54:53;;;;;;;8.43;1.90;;;11.50;99.90;;;;;;5043218;28;20083;-84
2023/10/28 06:57:19;;;;;;;3.65;1.75;;;11.50;99.90;;;;;;5044790;28;20014;-84
2023/10/28 06:59:45;;;;;;;5.60;1.48;;;11.50;99.90;;;;;;5043326;28;20044;-84
2023/10/28 07:02:10;;;;;;;4.28;1.40;;;11.50;99.90;;;;;;5044106;28;20060;-84
2023/10/28 07:04:36;;;;;;;5.78;1.85;;;11.50;99.90;;;;;;5044639;28;20097;-84
2023/10/28 07:07:02;;;;;;;4.70;1.80;;;11.50;99.90;;;;;;5044077;28;20038;-84
2023/10/28 07:09:28;;;;;;;5.93;2.00;;;11.50;99.90;;;;;;5045485;28;20036;-84
2023/10/28 07:11:53;;;;;;;3.58;1.50;;;11.50;99.90;;;;;;5044173;28;20117;-84
2023/10/28 07:14:19;;;;;;;7.65;1.70;;;11.60;99.90;;;;;;5044313;28;20025;-84
2023/10/28 07:16:45;;;;;;;6.97;1.80;;;11.60;99.90;;;;;;5042901;28;20018;-84
2023/10/28 07:19:12;;;;;;;6.10;1.30;;;11.60;99.90;;;;;;5043462;28;20022;-84
2023/10/28 07:21:37;;;;;;;7.70;2.08;;;11.60;99.90;;;;;;5036103;28;20540;-84
2023/10/28 07:24:09;;;;;;;5.47;1.30;;;11.60;99.90;;;;;;5029454;28;20029;-84
2023/10/28 07:26:35;;;;;;;6.57;1.63;;;11.70;99.90;;;;;;5043857;28;20041;-84
2023/10/28 07:29:01;;;;;;;5.32;1.90;;;11.70;99.90;;;;;;5046937;28;20059;-84
2023/10/28 07:31:26;;;;;;;4.90;1.23;;;11.70;99.90;;;;;;5063584;28;20071;-85
2023/10/28 07:33:52;;;;;;;7.57;1.67;;;11.70;99.90;;;;;;5061567;28;20028;-85
2023/10/28 07:36:18;;;;;;;7.45;1.35;;;11.70;99.90;;;;;;5063293;28;20397;-84
2023/10/28 07:38:43;;;;;;;6.07;1.65;;;11.70;99.90;;;;;;5062389;28;20143;-84
2023/10/28 07:41:09;;;;;;;5.03;1.50;;;11.80;99.90;;;;;;5063105;28;20035;-84
2023/10/28 07:43:36;;;;;;;5.95;1.48;;;11.80;99.90;;;;;;5062957;28;20102;-84
2023/10/28 07:46:01;;;;;;;6.28;1.98;;;11.80;99.90;;;;;;5061762;28;20419;-84
2023/10/28 07:48:28;;;;;;;5.97;1.30;;;11.80;99.90;;;;;;5063533;28;20021;-84
2023/10/28 07:50:54;;;;;;;5.50;1.33;;;11.80;99.90;;;;;;5061296;28;20024;-84
2023/10/28 07:53:20;;;;;;;6.45;1.40;;;11.90;99.90;;;;;;5064471;28;20029;-84
2023/10/28 07:55:45;;;;;;;5.68;1.30;;;11.90;99.90;;;;;;5061801;28;20063;-84
2023/10/28 07:58:12;;;;;;;3.88;1.08;;;11.90;99.90;;;;;;5062274;28;20022;-85
2023/10/28 08:00:39;;;;;;;8.30;1.33;;;12.00;99.90;;;;;;5062559;28;20080;-84
2023/10/28 08:03:04;;;;;;;4.25;1.33;;;12.00;99.90;;;;;;5044567;28;20029;-85
2023/10/28 08:05:30;;;;;;;7.28;1.60;;;12.00;99.90;;;;;;5043554;28;20032;-84
2023/10/28 08:07:56;;;;;;;8.00;1.90;;;12.00;99.90;;;;;;5040948;28;20081;-86
2023/10/28 08:10:22;;;;;;;5.22;1.27;;;12.00;99.90;;;;;;5043161;28;20029;-84
2023/10/28 08:12:58;;;;;;;5.65;1.48;;;12.10;99.90;;;;;;5041170;28;20320;-84
2023/10/28 08:15:24;;;;;;;5.30;1.25;;;12.10;99.90;;;;;;5042041;28;20120;-84
2023/10/28 08:17:53;;;;;;;11.65;1.42;;;12.10;99.90;;;;;;5042939;28;20501;-84
2023/10/28 08:20:18;;;;;;;7.88;1.15;;;12.10;99.90;;;;;;5041020;28;20064;-85
2023/10/28 08:22:45;;;;;;;4.53;1.10;;;12.20;99.90;;;;;;5044398;28;20029;-84
2023/10/28 08:25:15;;;;;;;4.53;1.30;;;12.20;99.90;;;;;;5024864;28;20050;-84
2023/10/28 08:27:42;;;;;;;9.32;1.45;;;12.20;99.90;;;;;;5042674;28;20041;-84
2023/10/28 08:30:08;;;;;;;4.22;1.00;;;12.20;99.90;;;;;;5041353;28;20030;-82
2023/10/28 08:32:41;;;;;;;8.43;1.20;;;12.30;99.90;;;;;;5041976;28;20035;-84
2023/10/28 08:35:09;;;;;;;3.90;1.00;;;12.30;99.90;;;;;;5042316;28;20098;-84
2023/10/28 08:37:35;;;;;;;76.28;9.05;;;12.30;99.90;;;;;;5041043;28;20093;-84
2023/10/28 08:40:01;;;;;;;125.90;16.60;;;12.40;99.90;;;;;;5042418;28;20017;-84
2023/10/28 08:42:28;;;;;;;147.68;20.88;;;12.40;99.90;;;;;;5039860;28;20037;-84
2023/10/28 08:44:58;;;;;;;42.50;8.02;;;12.40;99.90;;;;;;5042136;28;20093;-84
2023/10/28 08:47:26;;;;;;;13.63;3.97;;;12.50;99.90;;;;;;5041432;28;20076;-84
2023/10/28 08:49:54;;;;;;;11.40;2.40;;;12.50;99.90;;;;;;5041601;28;20025;-83
2023/10/28 08:52:23;;;;;;;5.00;0.93;;;12.60;99.90;;;;;;5042340;28;20066;-84
2023/10/28 08:54:49;;;;;;;6.95;1.00;;;12.60;99.90;;;;;;5038961;28;20041;-84
2023/10/28 08:57:17;;;;;;;6.10;0.98;;;12.70;99.90;;;;;;5041590;28;20018;-84
2023/10/28 08:59:42;;;;;;;4.30;1.10;;;12.70;99.90;;;;;;5039069;28;20021;-84
2023/10/28 09:02:12;;;;;;;8.00;0.88;;;12.80;99.90;;;;;;5042482;28;20068;-84
2023/10/28 09:04:37;;;;;;;7.97;1.67;;;12.90;99.90;;;;;;5042144;28;20029;-84
2023/10/28 09:07:05;;;;;;;5.55;1.10;;;13.00;99.90;;;;;;5028270;28;20049;-84
2023/10/28 09:09:31;;;;;;;3.70;0.90;;;13.10;99.90;;;;;;5024135;28;20037;-84
2023/10/28 09:11:59;;;;;;;7.78;1.00;;;13.20;99.90;;;;;;5021648;28;20493;-84
2023/10/28 09:14:24;;;;;;;6.35;0.90;;;13.30;99.90;;;;;;5035477;28;20056;-83
2023/10/28 09:16:51;;;;;;;5.47;0.82;;;13.40;99.90;;;;;;5038087;28;20422;-85
2023/10/28 09:19:21;;;;;;;6.25;0.98;;;13.50;99.90;;;;;;5036914;28;20037;-84
2023/10/28 09:21:51;;;;;;;6.72;0.98;;;13.50;99.90;;;;;;5021550;28;20022;-84
2023/10/28 09:24:17;;;;;;;8.13;1.02;;;13.60;99.90;;;;;;5029153;28;20034;-84
2023/10/28 09:26:43;;;;;;;6.47;0.90;;;13.70;99.90;;;;;;5040112;28;20113;-84
2023/10/28 09:29:09;;;;;;;4.78;1.02;;;13.70;99.90;;;;;;5039357;28;20025;-84
2023/10/28 09:31:37;;;;;;;8.30;1.67;;;13.70;99.90;;;;;;5040975;28;20063;-82
2023/10/28 09:34:04;;;;;;;6.60;1.10;;;13.70;99.90;;;;;;5041071;28;20029;-83
2023/10/28 09:36:30;;;;;;;9.13;1.15;;;13.70;99.90;;;;;;5025675;28;20029;-84
2023/10/28 09:38:56;;;;;;;4.45;0.90;;;13.70;99.90;;;;;;5040882;28;20021;-83
2023/10/28 09:41:23;;;;;;;6.03;1.05;;;13.70;99.90;;;;;;5020348;28;20025;-84
2023/10/28 09:43:49;;;;;;;8.60;1.00;;;13.80;99.90;;;;;;5015221;28;20092;-84
2023/10/28 09:46:26;;;;;;;4.90;0.80;;;13.70;99.90;;;;;;5055742;28;20111;-84
2023/10/28 09:48:58;;;;;;;3.85;0.90;;;13.80;99.90;;;;;;5043047;28;20025;-85
2023/10/28 09:51:27;;;;;;;6.20;0.85;;;13.90;99.90;;;;;;5039320;28;20049;-84
2023/10/28 09:54:03;;;;;;;5.13;0.90;;;13.90;99.90;;;;;;5039741;28;20432;-83
2023/10/28 09:56:36;;;;;;;5.40;0.98;;;13.90;99.90;;;;;;5038974;28;20129;-84
2023/10/28 09:59:10;;;;;;;4.90;0.70;;;14.00;99.90;;;;;;5039791;28;20029;-84
2023/10/28 10:01:55;;;;;;;3.28;0.90;;;14.00;99.90;;;;;;5022947;28;20041;-84
2023/10/28 10:04:38;;;;;;;4.25;1.20;;;13.90;99.90;;;;;;5021476;28;20088;-85
2023/10/28 10:07:04;;;;;;;5.40;1.13;;;14.00;99.90;;;;;;5039797;28;20070;-84
2023/10/28 10:09:40;;;;;;;2.78;0.68;;;14.00;99.90;;;;;;5039982;28;20030;-84
2023/10/28 10:12:06;;;;;;;8.05;1.38;;;14.10;99.90;;;;;;5039690;28;20022;-84
2023/10/28 10:14:33;;;;;;;3.58;0.80;;;14.10;99.90;;;;;;5040690;28;20021;-84
2023/10/28 10:17:38;;;;;;;2.78;0.63;;;14.10;99.90;;;;;;5039113;28;20052;-83
2023/10/28 10:20:06;;;;;;;8.35;1.05;;;14.20;99.90;;;;;;5039490;28;20033;-84
2023/10/28 10:22:35;;;;;;;7.10;1.08;;;14.20;99.90;;;;;;5040230;28;20013;-84
2023/10/28 10:25:01;;;;;;;5.25;0.80;;;14.20;99.90;;;;;;5038971;28;20013;-83
2023/10/28 10:27:40;;;;;;;5.30;0.80;;;14.30;99.90;;;;;;5028452;28;20025;-83
2023/10/28 10:30:06;;;;;;;4.50;0.68;;;14.40;99.90;;;;;;5043037;28;20029;-83
2023/10/28 10:32:50;;;;;;;6.60;1.25;;;14.40;99.90;;;;;;5044649;28;20029;-83
2023/10/28 10:35:33;;;;;;;6.70;1.00;;;14.50;99.80;;;;;;5039342;28;20038;-84
2023/10/28 10:38:10;;;;;;;4.53;0.68;;;14.60;99.60;;;;;;5034043;28;20188;-84
2023/10/28 10:40:45;;;;;;;3.10;0.60;;;14.70;99.40;;;;;;5036103;28;20025;-84
2023/10/28 10:43:11;;;;;;;3.72;0.60;;;14.70;99.40;;;;;;5042957;28;20065;-84
2023/10/28 10:45:37;;;;;;;6.20;1.10;;;14.80;99.20;;;;;;5044212;28;20554;-84
2023/10/28 10:48:05;;;;;;;3.58;0.60;;;14.80;99.10;;;;;;5044475;28;20027;-83
2023/10/28 10:50:31;;;;;;;4.25;0.63;;;14.90;99.40;;;;;;5042344;28;20028;-84
2023/10/28 10:52:58;;;;;;;7.10;1.25;;;15.00;99.60;;;;;;5046217;28;20033;-84
2023/10/28 10:55:24;;;;;;;8.85;1.60;;;15.20;99.30;;;;;;5052878;28;20039;-84
2023/10/28 10:57:51;;;;;;;6.72;0.82;;;15.40;99.40;;;;;;5066682;28;20072;-84
2023/10/28 11:00:18;;;;;;;4.20;0.75;;;15.50;98.60;;;;;;5043283;28;20367;-84
2023/10/28 11:02:45;;;;;;;5.20;0.60;;;15.50;98.10;;;;;;5041945;28;20069;-84
2023/10/28 11:05:12;;;;;;;7.32;1.33;;;15.60;96.60;;;;;;5040173;28;20037;-84
2023/10/28 11:07:38;;;;;;;3.58;0.75;;;15.60;96.90;;;;;;5040878;28;20044;-83
2023/10/28 11:10:10;;;;;;;5.10;0.90;;;15.60;96.30;;;;;;5043909;28;20041;-84
2023/10/28 11:12:39;;;;;;;5.38;1.08;;;15.60;95.90;;;;;;5026297;28;20053;-84
2023/10/28 11:15:06;;;;;;;2.30;0.60;;;15.60;95.10;;;;;;5043233;28;20037;-85
2023/10/28 11:17:32;;;;;;;4.90;1.00;;;15.60;94.60;;;;;;5042536;28;20022;-84
2023/10/28 11:20:03;;;;;;;4.03;0.70;;;15.60;94.50;;;;;;5043086;28;20037;-84
2023/10/28 11:22:30;;;;;;;4.75;0.70;;;15.60;94.50;;;;;;5042913;28;20384;-85
2023/10/28 11:24:57;;;;;;;6.43;1.15;;;15.70;95.10;;;;;;5042179;28;20025;-84
2023/10/28 11:27:26;;;;;;;5.30;0.70;;;16.00;95.50;;;;;;5043656;28;20037;-84
2023/10/28 11:29:58;;;;;;;7.35;1.00;;;16.40;95.60;;;;;;5041848;28;20026;-84
2023/10/28 11:32:26;;;;;;;3.88;0.60;;;16.90;94.40;;;;;;5043745;28;20021;-84
2023/10/28 11:34:55;;;;;;;4.25;0.63;;;17.10;92.70;;;;;;5025590;28;20110;-84
2023/10/28 11:37:20;;;;;;;3.88;0.63;;;17.10;92.30;;;;;;5025096;28;20045;-84
2023/10/28 11:39:49;;;;;;;4.63;0.93;;;17.10;91.30;;;;;;5041214;28;20014;-84
2023/10/28 11:42:18;;;;;;;2.72;0.60;;;17.20;91.40;;;;;;5041921;28;20044;-85
2023/10/28 11:44:51;;;;;;;11.38;1.17;;;17.30;90.00;;;;;;5044093;28;20025;-84
2023/10/28 11:47:19;;;;;;;4.70;0.90;;;17.20;87.90;;;;;;5041276;28;20762;-84
2023/10/28 11:49:46;;;;;;;6.90;0.90;;;17.10;87.20;;;;;;5043541;28;20052;-84
2023/10/28 11:52:14;;;;;;;5.43;0.70;;;16.90;84.70;;;;;;5044237;28;20212;-84
2023/10/28 11:54:40;;;;;;;4.45;0.68;;;16.80;85.00;;;;;;5042509;28;20021;-84
2023/10/28 11:57:06;;;;;;;3.30;0.80;;;16.70;85.80;;;;;;5026383;28;20493;-84
2023/10/28 11:59:32;;;;;;;4.53;0.82;;;16.70;86.00;;;;;;5041813;28;20048;-83
2023/10/28 12:01:58;;;;;;;6.97;0.80;;;16.70;85.60;;;;;;5042887;28;20017;-84
2023/10/28 12:04:27;;;;;;;6.47;1.20;;;17.00;86.20;;;;;;5041772;28;20051;-84
2023/10/28 12:06:53;;;;;;;5.93;0.80;;;17.60;86.50;;;;;;5042565;28;20041;-84
2023/10/28 12:09:20;;;;;;;6.30;0.90;;;18.30;87.60;;;;;;5041943;28;20037;-85
2023/10/28 12:11:49;;;;;;;4.85;0.70;;;18.90;82.10;;;;;;5042102;28;20022;-84
2023/10/28 12:14:15;;;;;;;4.95;0.95;;;19.40;80.50;;;;;;5042295;28;20056;-84
2023/10/28 12:16:41;;;;;;;8.32;1.15;;;20.00;79.70;;;;;;5041805;28;20079;-84
2023/10/28 12:19:07;;;;;;;6.57;0.90;;;20.60;76.70;;;;;;5026247;28;20490;-84
2023/10/28 12:21:35;;;;;;;3.35;0.77;;;21.00;75.30;;;;;;5041028;28;20014;-84
2023/10/28 12:24:01;;;;;;;5.55;0.70;;;21.50;75.20;;;;;;5042085;28;20025;-84
2023/10/28 12:26:27;;;;;;;6.93;1.00;;;22.10;75.30;;;;;;5041188;28;20374;-84
2023/10/28 12:28:53;;;;;;;3.33;0.50;;;22.70;71.60;;;;;;5042617;28;20085;-84
2023/10/28 12:31:22;;;;;;;5.03;0.90;;;23.10;68.80;;;;;;5042004;28;20023;-84
2023/10/28 12:33:49;;;;;;;3.75;0.80;;;23.50;67.10;;;;;;5041413;28;20022;-84
2023/10/28 12:36:16;;;;;;;4.63;0.90;;;23.90;66.60;;;;;;5042429;28;20025;-84
2023/10/28 12:38:44;;;;;;;5.85;1.13;;;24.20;64.80;;;;;;5037552;28;20018;-84
2023/10/28 12:41:10;;;;;;;4.93;0.95;;;24.10;62.10;;;;;;5041351;28;20551;-85
2023/10/28 12:43:35;;;;;;;7.22;1.05;;;24.20;61.90;;;;;;5043502;28;20041;-84
2023/10/28 12:46:01;;;;;;;7.60;1.10;;;24.20;59.50;;;;;;5041782;28;20519;-83